Time;durP1;ratioP1;P1;durP2;ratioP2;P2;SDS_P1;SDS_P2;PMS_P1;PMS_P2;Temp;Humidity;BMP_temperature;BMP_pressure;BME280_temperature;BME280_humidity;BME280_pressure;Samples;Min_cycle;Max_cycle;Signal;HPM_P1;HPM_P2
2021/07/06 00:00:16;;;;;;;10.35;6.53;;;;;;;24.32;57.69;99131.53;5038554;28;20025;-76
2021/07/06 00:02:42;;;;;;;13.50;6.88;;;;;;;24.40;58.15;99147.25;5029267;28;20029;-75
2021/07/06 00:05:09;;;;;;;13.13;7.22;;;;;;;24.42;58.33;99160.50;5031123;28;20042;-75
2021/07/06 00:07:35;;;;;;;12.65;7.30;;;;;;;24.35;58.40;99149.13;5040402;28;20040;-75
2021/07/06 00:10:01;;;;;;;9.32;6.95;;;;;;;24.40;58.35;99155.38;5035678;28;20042;-75
2021/07/06 00:12:27;;;;;;;9.20;7.25;;;;;;;24.38;58.66;99162.13;5041307;28;20072;-75
2021/07/06 00:14:53;;;;;;;9.32;6.63;;;;;;;24.32;58.52;99168.59;5038452;28;20184;-75
2021/07/06 00:17:19;;;;;;;9.63;6.55;;;;;;;24.25;58.76;99162.59;5041257;28;20068;-74
2021/07/06 00:19:46;;;;;;;11.18;7.10;;;;;;;24.23;58.66;99151.22;5035651;28;20033;-74
2021/07/06 00:22:12;;;;;;;9.05;6.72;;;;;;;24.31;58.50;99164.25;5043915;28;20024;-75
2021/07/06 00:24:37;;;;;;;9.82;6.57;;;;;;;24.15;59.07;99158.78;5038318;28;20017;-74
2021/07/06 00:27:03;;;;;;;10.25;6.47;;;;;;;24.14;58.87;99159.84;5034198;28;20049;-75
2021/07/06 00:29:29;;;;;;;14.27;6.82;;;;;;;24.28;58.46;99156.69;5042603;28;20033;-76
2021/07/06 00:31:55;;;;;;;12.85;6.35;;;;;;;24.14;58.57;99159.84;5030556;28;20326;-76
2021/07/06 00:34:20;;;;;;;11.02;6.47;;;;;;;24.18;58.55;99157.41;5041932;28;20036;-75
2021/07/06 00:36:46;;;;;;;8.23;6.32;;;;;;;24.17;58.51;99159.31;5067934;28;20315;-75
2021/07/06 00:39:11;;;;;;;8.93;6.70;;;;;;;24.18;58.36;99157.41;5041201;28;20060;-76
2021/07/06 00:41:37;;;;;;;9.82;6.60;;;;;;;24.07;58.83;99159.28;5043709;28;20036;-76
2021/07/06 00:44:04;;;;;;;10.65;6.30;;;;;;;24.06;59.06;99168.47;5036100;28;20033;-76
2021/07/06 00:46:29;;;;;;;8.88;6.47;;;;;;;24.01;59.17;99167.63;5039370;28;20064;-76
2021/07/06 00:48:55;;;;;;;8.00;6.45;;;;;;;24.02;59.17;99172.78;5043639;28;20333;-76
2021/07/06 00:51:21;;;;;;;7.90;5.97;;;;;;;23.92;59.31;99159.19;5045390;28;20018;-75
2021/07/06 00:53:46;;;;;;;9.88;6.50;;;;;;;24.03;59.15;99171.69;5041462;28;20037;-76
2021/07/06 00:56:12;;;;;;;9.93;6.82;;;;;;;23.98;58.94;99160.03;5042190;28;20037;-76
2021/07/06 00:58:38;;;;;;;8.65;6.13;;;;;;;23.98;59.12;99174.38;5036855;28;20025;-75
2021/07/06 01:01:04;;;;;;;8.20;6.47;;;;;;;24.04;58.74;99178.75;5041041;28;20247;-76
2021/07/06 01:03:33;;;;;;;10.68;6.25;;;;;;;24.08;58.58;99179.84;5035651;28;20021;-76
2021/07/06 01:05:58;;;;;;;9.77;6.40;;;;;;;24.00;58.80;99184.94;5039399;28;20224;-76
2021/07/06 01:08:24;;;;;;;10.30;6.10;;;;;;;23.92;59.10;99180.81;5030346;28;20044;-76
2021/07/06 01:10:52;;;;;;;9.00;6.45;;;;;;;23.89;58.97;99181.34;5036237;28;20033;-76
2021/07/06 01:13:19;;;;;;;9.73;6.22;;;;;;;23.96;58.57;99184.66;5036194;28;20162;-74
2021/07/06 01:15:44;;;;;;;8.85;6.53;;;;;;;23.93;58.62;99185.16;5039925;28;20045;-74
2021/07/06 01:18:15;;;;;;;9.20;6.05;;;;;;;23.95;58.32;99185.72;5039705;28;20072;-74
2021/07/06 01:20:47;;;;;;;9.50;6.53;;;;;;;24.00;58.20;99185.75;5069654;28;20101;-74
2021/07/06 01:23:13;;;;;;;8.95;7.03;;;;;;;23.92;58.80;99180.81;5031521;28;20156;-75
2021/07/06 01:25:40;;;;;;;10.82;6.13;;;;;;;23.75;58.70;99183.69;5040143;28;20033;-76
2021/07/06 01:28:06;;;;;;;9.68;6.68;;;;;;;23.76;58.55;99171.81;5038084;28;20340;-76
2021/07/06 01:30:32;;;;;;;10.13;6.72;;;;;;;23.79;58.78;99171.28;5060371;28;20033;-76
2021/07/06 01:32:58;;;;;;;9.25;6.40;;;;;;;23.82;58.78;99178.06;5036340;28;20075;-76
2021/07/06 01:35:24;;;;;;;8.65;6.55;;;;;;;23.79;58.99;99178.56;5037722;28;20327;-76
2021/07/06 01:37:53;;;;;;;9.65;6.53;;;;;;;23.65;59.55;99182.81;5037222;28;20109;-76
2021/07/06 01:40:21;;;;;;;9.10;6.93;;;;;;;23.65;59.45;99175.53;5035460;28;20041;-76
2021/07/06 01:42:48;;;;;;;13.40;7.18;;;;;;;23.62;59.58;99173.34;5039547;28;20316;-76
2021/07/06 01:45:34;;;;;;;8.48;5.95;;;;;;;23.51;59.41;99166.22;5030756;28;20025;-76
2021/07/06 01:48:01;;;;;;;9.82;6.55;;;;;;;23.62;59.24;99177.94;5034796;28;20061;-76
2021/07/06 01:50:33;;;;;;;12.68;6.65;;;;;;;23.68;59.13;99179.59;5037978;28;20045;-76
2021/07/06 01:53:01;;;;;;;8.90;6.05;;;;;;;23.65;58.97;99175.53;5040687;28;20502;-76
2021/07/06 01:55:31;;;;;;;8.55;6.43;;;;;;;23.63;59.11;99169.56;5040369;28;20092;-75
2021/07/06 01:57:58;;;;;;;8.38;6.68;;;;;;;23.62;58.78;99150.91;5035344;28;20035;-76
2021/07/06 02:00:28;;;;;;;10.32;6.18;;;;;;;23.70;58.89;99178.25;5038072;28;20048;-75
2021/07/06 02:02:58;;;;;;;8.88;5.82;;;;;;;23.60;59.08;99172.78;5040540;28;20230;-76
2021/07/06 02:05:39;;;;;;;9.55;5.85;;;;;;;23.65;59.13;99178.22;5039395;28;20068;-75
2021/07/06 02:08:06;;;;;;;7.68;6.20;;;;;;;23.62;59.06;99167.94;5033055;28;20016;-74
2021/07/06 02:10:32;;;;;;;11.73;6.30;;;;;;;23.67;58.89;99169.84;5032818;28;20057;-74
2021/07/06 02:13:00;;;;;;;8.98;5.97;;;;;;;23.67;58.77;99169.84;5031025;28;20370;-74
2021/07/06 02:15:26;;;;;;;7.43;6.47;;;;;;;23.58;59.23;99171.41;5033955;28;20049;-74
2021/07/06 02:17:52;;;;;;;10.93;6.88;;;;;;;23.70;58.51;99153.13;5026162;28;20026;-74
2021/07/06 02:20:19;;;;;;;8.95;6.40;;;;;;;23.67;58.92;99181.47;5040373;28;20346;-75
2021/07/06 02:22:47;;;;;;;9.60;6.15;;;;;;;23.67;58.94;99167.16;5030182;28;20105;-76
2021/07/06 02:25:15;;;;;;;9.15;6.20;;;;;;;23.59;59.49;99175.75;5066578;28;20033;-76
2021/07/06 02:27:45;;;;;;;6.68;5.82;;;;;;;23.56;59.18;99188.72;5038817;28;20100;-75
2021/07/06 02:30:12;;;;;;;8.48;6.40;;;;;;;23.54;59.27;99174.66;5033527;28;20049;-76
2021/07/06 02:32:38;;;;;;;7.05;6.10;;;;;;;23.52;59.54;99187.56;5031430;28;20041;-75
2021/07/06 02:35:06;;;;;;;9.93;6.15;;;;;;;23.44;59.84;99182.66;5038714;28;20105;-76
2021/07/06 02:37:31;;;;;;;7.57;6.53;;;;;;;23.40;59.81;99188.84;5030448;28;20030;-75
2021/07/06 02:39:57;;;;;;;10.32;7.03;;;;;;;23.39;60.01;99179.91;5031935;28;20034;-75
2021/07/06 02:42:22;;;;;;;9.75;6.40;;;;;;;23.42;59.75;99187.50;5030437;28;20331;-76
2021/07/06 02:44:47;;;;;;;8.23;6.35;;;;;;;23.35;60.16;99180.69;5037263;28;20231;-76
2021/07/06 02:47:13;;;;;;;8.68;6.97;;;;;;;23.39;60.04;99184.50;5034158;28;20031;-76
2021/07/06 02:49:38;;;;;;;10.50;6.60;;;;;;;23.29;60.40;99185.25;5041448;28;20038;-76
2021/07/06 02:52:04;;;;;;;8.07;6.63;;;;;;;23.27;60.25;99184.69;5036890;28;20036;-76
2021/07/06 02:54:29;;;;;;;12.40;6.47;;;;;;;23.33;60.20;99201.75;5030309;28;20061;-76
2021/07/06 02:56:55;;;;;;;16.60;7.20;;;;;;;23.19;60.99;99207.56;5035950;28;20029;-75
2021/07/06 02:59:20;;;;;;;8.57;6.95;;;;;;;23.18;60.83;99208.66;5034026;28;20029;-75
2021/07/06 03:01:46;;;;;;;11.07;6.78;;;;;;;23.23;60.71;99205.19;5031732;28;20042;-76
2021/07/06 03:04:11;;;;;;;9.98;6.95;;;;;;;23.15;60.80;99213.75;5037786;28;20417;-75
2021/07/06 03:06:37;;;;;;;10.35;6.25;;;;;;;23.14;60.90;99206.72;5031709;28;20327;-76
2021/07/06 03:09:02;;;;;;;11.45;6.57;;;;;;;23.08;61.18;99227.47;5070682;28;20389;-74
2021/07/06 03:11:29;;;;;;;13.50;7.90;;;;;;;23.01;61.41;99231.44;5023083;28;20038;-74
2021/07/06 03:13:54;;;;;;;11.85;7.55;;;;;;;23.06;61.47;99231.50;5034716;28;20259;-74
2021/07/06 03:16:20;;;;;;;12.00;7.40;;;;;;;23.01;61.48;99237.66;5040730;28;20028;-74
2021/07/06 03:18:45;;;;;;;12.50;6.75;;;;;;;22.99;61.62;99236.28;5030289;28;20084;-76
2021/07/06 03:21:11;;;;;;;11.18;7.05;;;;;;;23.25;60.72;99249.78;5033932;28;20044;-75
2021/07/06 03:23:36;;;;;;;8.15;6.25;;;;;;;23.30;60.37;99245.47;5065569;28;20140;-76
2021/07/06 03:26:02;;;;;;;8.77;7.00;;;;;;;23.18;60.99;99245.66;5032886;28;20036;-76
2021/07/06 03:28:27;;;;;;;10.60;6.55;;;;;;;23.18;61.01;99248.34;5029588;28;20236;-76
2021/07/06 03:30:53;;;;;;;9.75;6.68;;;;;;;23.27;60.81;99252.22;5025969;28;20095;-76
2021/07/06 03:33:18;;;;;;;10.38;6.53;;;;;;;23.40;60.32;99259.91;5041128;28;20040;-76
2021/07/06 03:35:46;;;;;;;9.38;6.63;;;;;;;23.45;59.92;99254.53;5039129;28;20033;-76
2021/07/06 03:38:12;;;;;;;12.43;6.50;;;;;;;23.40;60.13;99257.19;5030391;28;20030;-76
2021/07/06 03:40:38;;;;;;;11.80;6.35;;;;;;;23.35;60.16;99254.44;5034588;28;20338;-76
2021/07/06 03:43:04;;;;;;;9.55;7.05;;;;;;;23.23;60.77;99251.09;5033288;28;20080;-76
2021/07/06 03:45:29;;;;;;;9.50;6.47;;;;;;;23.27;60.69;99254.09;5033239;28;20127;-76
2021/07/06 03:47:55;;;;;;;7.60;6.38;;;;;;;23.39;60.28;99258.25;5038775;28;20207;-76
2021/07/06 03:50:24;;;;;;;9.02;6.43;;;;;;;23.40;60.35;99254.50;5027635;28;20350;-76
2021/07/06 03:52:52;;;;;;;9.38;6.38;;;;;;;23.55;60.04;99261.94;5038085;28;20060;-76
2021/07/06 03:55:19;;;;;;;10.30;6.20;;;;;;;23.77;59.26;99261.81;5037811;28;20038;-76
2021/07/06 03:57:46;;;;;;;7.90;6.47;;;;;;;23.85;59.14;99253.22;5030537;28;20022;-76
2021/07/06 04:00:15;;;;;;;8.27;5.93;;;;;;;23.75;59.14;99256.69;5034557;28;20037;-76
2021/07/06 04:02:40;;;;;;;8.90;6.30;;;;;;;23.93;58.71;99246.53;5033296;28;20053;-76
2021/07/06 04:05:08;;;;;;;8.25;6.50;;;;;;;23.95;58.36;99247.91;5028009;28;20097;-76
2021/07/06 04:07:35;;;;;;;7.53;5.60;;;;;;;23.88;58.93;99248.13;5037007;28;20045;-74
2021/07/06 04:10:02;;;;;;;12.30;6.35;;;;;;;23.97;58.58;99255.78;5041515;28;20079;-75
2021/07/06 04:12:27;;;;;;;11.38;6.97;;;;;;;24.05;58.24;99250.69;5033051;28;20029;-75
2021/07/06 04:14:53;;;;;;;10.98;6.15;;;;;;;24.20;58.04;99258.06;5036306;28;20036;-75
2021/07/06 04:17:18;;;;;;;13.73;6.43;;;;;;;24.19;58.05;99259.94;5038872;28;20013;-77
2021/07/06 04:19:44;;;;;;;10.80;6.70;;;;;;;24.33;57.85;99254.09;5034610;28;20061;-76
2021/07/06 04:22:09;;;;;;;14.90;8.77;;;;;;;24.49;57.42;99256.59;5035649;28;20076;-76
2021/07/06 04:24:35;;;;;;;18.85;8.75;;;;;;;24.70;56.68;99257.50;5031226;28;20026;-76
2021/07/06 04:27:01;;;;;;;9.15;6.30;;;;;;;24.95;55.66;99264.88;5030968;28;20041;-76
2021/07/06 04:29:27;;;;;;;12.20;6.40;;;;;;;25.17;55.30;99261.97;5035292;28;20192;-76
2021/07/06 04:31:54;;;;;;;9.52;6.28;;;;;;;25.20;54.39;99256.03;5037174;28;20037;-76
2021/07/06 04:34:21;;;;;;;14.68;6.30;;;;;;;25.31;54.05;99275.81;5030815;28;20033;-76
2021/07/06 04:36:47;;;;;;;10.82;6.43;;;;;;;25.42;53.84;99282.88;5030148;28;20076;-76
2021/07/06 04:39:12;;;;;;;13.05;6.03;;;;;;;25.50;53.39;99278.81;5039865;28;20022;-76
2021/07/06 04:41:38;;;;;;;11.43;6.47;;;;;;;25.59;53.57;99282.59;5028233;28;20038;-76
2021/07/06 04:44:03;;;;;;;11.05;6.60;;;;;;;25.76;53.25;99285.88;5039966;28;20037;-76
2021/07/06 04:46:29;;;;;;;13.00;6.22;;;;;;;25.98;52.37;99286.41;5038343;28;20036;-76
2021/07/06 04:48:55;;;;;;;15.55;6.57;;;;;;;26.22;52.16;99283.94;5037847;28;20017;-76
2021/07/06 04:51:21;;;;;;;12.02;6.32;;;;;;;26.29;51.67;99276.31;5039827;28;20538;-76
2021/07/06 04:53:46;;;;;;;11.90;6.45;;;;;;;26.50;50.55;99285.22;5039079;28;20050;-76
2021/07/06 04:56:12;;;;;;;10.38;6.43;;;;;;;26.58;49.94;99287.38;5039024;28;20037;-74
2021/07/06 04:58:38;;;;;;;9.07;5.82;;;;;;;26.91;49.32;99291.28;5041457;28;20315;-74
2021/07/06 05:01:04;;;;;;;8.98;6.28;;;;;;;27.22;48.35;99294.69;5036612;28;20042;-74
2021/07/06 05:03:32;;;;;;;7.55;5.90;;;;;;;27.55;47.69;99295.00;5038162;28;20216;-74
2021/07/06 05:05:58;;;;;;;10.68;6.25;;;;;;;27.60;47.51;99301.22;5039600;28;20057;-76
2021/07/06 05:08:24;;;;;;;11.52;6.22;;;;;;;27.70;46.92;99310.41;5041232;28;20045;-76
2021/07/06 05:10:50;;;;;;;14.48;6.22;;;;;;;27.87;46.20;99311.59;5039265;28;20029;-75
2021/07/06 05:13:15;;;;;;;10.57;6.10;;;;;;;27.83;46.47;99307.03;5040246;28;20323;-77
2021/07/06 05:15:41;;;;;;;8.13;5.53;;;;;;;28.12;45.74;99309.78;5040898;28;20037;-76
2021/07/06 05:18:07;;;;;;;15.00;5.80;;;;;;;28.24;45.42;99312.94;5039860;28;20033;-76
2021/07/06 05:20:32;;;;;;;11.88;5.57;;;;;;;28.33;45.07;99300.31;5041289;28;20103;-76
2021/07/06 05:22:58;;;;;;;10.48;5.30;;;;;;;28.25;45.04;99304.50;5037033;28;20079;-75
2021/07/06 05:25:23;;;;;;;8.98;5.90;;;;;;;28.45;45.07;99317.06;5039067;28;20029;-76
2021/07/06 05:27:49;;;;;;;9.40;5.85;;;;;;;28.62;44.65;99316.59;5039746;28;20325;-76
2021/07/06 05:30:15;;;;;;;8.88;5.60;;;;;;;28.85;44.22;99304.88;5039766;28;20017;-76
2021/07/06 05:32:40;;;;;;;8.32;5.50;;;;;;;29.29;43.57;99311.94;5040700;28;20364;-76
2021/07/06 05:35:10;;;;;;;15.95;5.63;;;;;;;29.53;42.60;99311.88;5037508;28;20036;-76
2021/07/06 05:37:37;;;;;;;14.60;5.50;;;;;;;29.57;41.89;99309.34;5069631;28;20025;-74
2021/07/06 05:40:08;;;;;;;7.72;5.22;;;;;;;29.43;41.80;99309.28;5040787;28;20052;-74
2021/07/06 05:42:34;;;;;;;13.25;5.43;;;;;;;29.62;42.18;99312.81;5041143;28;20262;-74
2021/07/06 05:45:00;;;;;;;14.32;5.38;;;;;;;29.72;41.18;99304.44;5035387;28;20278;-74
2021/07/06 05:47:26;;;;;;;10.30;5.93;;;;;;;29.96;40.21;99308.97;5037904;28;20331;-76
2021/07/06 05:49:51;;;;;;;12.40;6.03;;;;;;;29.74;40.67;99290.50;5035758;28;20036;-76
2021/07/06 05:52:17;;;;;;;13.68;5.78;;;;;;;29.99;40.81;99316.53;5037016;28;20041;-76
2021/07/06 05:54:42;;;;;;;9.25;5.43;;;;;;;30.35;39.20;99314.03;5034530;28;20028;-76
2021/07/06 05:57:08;;;;;;;10.25;5.57;;;;;;;30.24;39.65;99318.06;5038125;28;20022;-76
2021/07/06 05:59:33;;;;;;;8.65;5.30;;;;;;;30.60;38.97;99318.22;5035750;28;20029;-76
2021/07/06 06:01:59;;;;;;;8.68;4.82;;;;;;;30.67;38.60;99311.22;5038369;28;20044;-76
2021/07/06 06:04:26;;;;;;;8.75;5.00;;;;;;;31.19;37.95;99322.69;5037533;28;20030;-76
2021/07/06 06:06:52;;;;;;;5.97;5.20;;;;;;;30.89;37.66;99288.63;5036359;28;20029;-76
2021/07/06 06:09:17;;;;;;;9.02;5.13;;;;;;;31.05;37.67;99314.50;5039459;28;20033;-76
2021/07/06 06:11:43;;;;;;;8.27;5.32;;;;;;;30.64;37.43;99317.28;5035476;28;20640;-76
2021/07/06 06:14:08;;;;;;;19.65;4.97;;;;;;;30.90;37.43;99322.22;5035663;28;20025;-76
2021/07/06 06:16:34;;;;;;;14.20;5.43;;;;;;;31.07;37.53;99314.19;5037051;28;20037;-75
2021/07/06 06:19:00;;;;;;;12.68;5.40;;;;;;;31.27;36.63;99321.19;5211691;22;20041;-69
2021/07/06 06:21:26;;;;;;;10.75;5.15;;;;;;;31.45;37.26;99322.94;5041877;28;20383;-67
2021/07/06 06:23:53;;;;;;;9.10;5.00;;;;;;;31.80;36.64;99321.28;5033100;28;20022;-65
2021/07/06 06:26:18;;;;;;;10.98;4.90;;;;;;;31.68;35.96;99323.75;5035894;28;20071;-68
2021/07/06 06:28:44;;;;;;;16.33;5.03;;;;;;;31.78;35.56;99326.28;5022341;28;20223;-65
2021/07/06 06:31:10;;;;;;;10.73;4.93;;;;;;;31.97;35.44;99332.34;5041865;28;20045;-65
2021/07/06 06:33:35;;;;;;;11.05;5.00;;;;;;;32.18;35.52;99329.06;5033917;28;20033;-66
2021/07/06 06:36:01;;;;;;;8.32;4.95;;;;;;;32.13;34.52;99324.53;5040393;28;20033;-67
2021/07/06 06:38:26;;;;;;;8.32;4.22;;;;;;;32.02;34.46;99325.94;5041417;28;20040;-66
2021/07/06 06:40:51;;;;;;;10.05;4.35;;;;;;;32.14;34.44;99325.34;5041117;28;20027;-69
2021/07/06 06:43:18;;;;;;;6.43;4.60;;;;;;;32.29;34.39;99311.31;5041292;28;20033;-66
2021/07/06 06:45:45;;;;;;;14.77;5.00;;;;;;;32.70;34.49;99317.25;5041359;28;20226;-69
2021/07/06 06:48:11;;;;;;;7.88;4.53;;;;;;;32.81;34.10;99298.59;5039499;28;20213;-67
2021/07/06 06:50:37;;;;;;;7.95;4.25;;;;;;;32.79;33.57;99316.50;5041953;28;20044;-69
2021/07/06 06:53:02;;;;;;;8.02;4.40;;;;;;;32.97;32.96;99318.13;5040005;28;20439;-69
2021/07/06 06:55:28;;;;;;;7.00;4.53;;;;;;;33.10;32.71;99314.44;5041426;28;20031;-68
2021/07/06 06:57:53;;;;;;;4.97;4.30;;;;;;;33.37;31.84;99310.63;5040596;28;20091;-67
2021/07/06 07:00:19;;;;;;;7.53;4.25;;;;;;;33.48;31.25;99317.41;5040908;28;20040;-67
2021/07/06 07:02:44;;;;;;;6.55;3.83;;;;;;;33.60;31.66;99316.75;5041020;28;20033;-66
2021/07/06 07:05:14;;;;;;;7.10;3.90;;;;;;;33.57;31.04;99315.47;5040608;28;20033;-68
2021/07/06 07:07:40;;;;;;;6.60;4.28;;;;;;;33.71;31.16;99309.00;5033855;28;20041;-65
2021/07/06 07:10:07;;;;;;;6.45;4.00;;;;;;;34.09;30.59;99309.09;5026985;28;20200;-65
2021/07/06 07:12:35;;;;;;;6.57;4.05;;;;;;;33.95;30.54;99312.84;5026284;28;20046;-69
2021/07/06 07:15:01;;;;;;;8.85;3.65;;;;;;;33.94;30.25;99313.97;5023935;28;20093;-70
2021/07/06 07:17:26;;;;;;;8.95;4.30;;;;;;;34.39;30.12;99318.25;5025761;28;20363;-69
2021/07/06 07:19:52;;;;;;;7.55;3.70;;;;;;;34.95;29.71;99308.75;5038694;28;20041;-70
2021/07/06 07:22:17;;;;;;;5.00;3.90;;;;;;;34.43;29.94;99317.25;5026871;28;20036;-70
2021/07/06 07:24:43;;;;;;;6.35;3.67;;;;;;;34.72;30.23;99318.41;5040601;28;20040;-70
2021/07/06 07:27:08;;;;;;;8.15;3.90;;;;;;;35.04;29.65;99311.44;5040099;28;20037;-70
2021/07/06 07:29:34;;;;;;;9.77;4.30;;;;;;;34.63;29.59;99312.94;5039665;28;20044;-69
2021/07/06 07:32:00;;;;;;;7.40;4.13;;;;;;;34.70;29.07;99313.22;5040479;28;20037;-69
2021/07/06 07:34:26;;;;;;;10.88;3.67;;;;;;;34.85;29.33;99320.13;5040411;28;20330;-69
2021/07/06 07:36:53;;;;;;;7.88;4.20;;;;;;;35.01;28.95;99312.09;5031087;28;20022;-67
2021/07/06 07:39:18;;;;;;;6.55;3.45;;;;;;;35.26;28.10;99302.03;5023794;28;20084;-69
2021/07/06 07:41:44;;;;;;;6.97;3.70;;;;;;;35.19;27.91;99305.31;5040557;28;20060;-67
2021/07/06 07:44:10;;;;;;;4.07;3.22;;;;;;;35.41;27.17;99304.22;5040443;28;20030;-66
2021/07/06 07:46:36;;;;;;;5.28;3.45;;;;;;;35.87;26.83;99302.34;5035416;28;20688;-68
2021/07/06 07:49:02;;;;;;;4.95;3.20;;;;;;;35.94;26.89;99303.41;5032032;28;20378;-65
2021/07/06 07:51:27;;;;;;;8.15;3.40;;;;;;;36.13;26.07;99300.91;5022478;28;20080;-67
2021/07/06 07:53:53;;;;;;;5.60;3.15;;;;;;;36.20;26.16;99294.81;5021441;28;20041;-69
2021/07/06 07:56:18;;;;;;;5.93;3.17;;;;;;;36.31;25.87;99309.78;5030336;28;20029;-69
2021/07/06 07:58:44;;;;;;;4.80;2.92;;;;;;;36.47;26.37;99309.16;5035439;28;20040;-67
2021/07/06 08:01:09;;;;;;;5.25;3.60;;;;;;;36.86;25.74;99307.66;5022021;28;20040;-67
2021/07/06 08:03:35;;;;;;;6.85;3.42;;;;;;;36.45;25.16;99310.28;5020839;28;20184;-69
2021/07/06 08:06:00;;;;;;;5.35;3.05;;;;;;;36.73;25.34;99304.06;5021439;28;20045;-67
2021/07/06 08:08:26;;;;;;;4.78;3.00;;;;;;;36.83;25.08;99300.06;5022073;28;20101;-67
2021/07/06 08:10:53;;;;;;;5.63;2.88;;;;;;;36.17;26.34;99302.97;5021850;28;20095;-67
2021/07/06 08:13:22;;;;;;;8.88;3.58;;;;;;;35.12;27.32;99313.31;5020736;28;20033;-67
2021/07/06 08:15:48;;;;;;;7.32;3.20;;;;;;;34.52;28.30;99306.22;5020718;28;20026;-69
2021/07/06 08:18:13;;;;;;;6.15;3.45;;;;;;;35.22;27.57;99307.41;5022123;28;20060;-68
2021/07/06 08:20:39;;;;;;;15.18;6.25;;;;;;;35.44;27.82;99320.06;5026896;28;20044;-68
2021/07/06 08:23:04;;;;;;;9.45;5.32;;;;;;;35.37;26.93;99320.59;5034543;28;20069;-66
2021/07/06 08:25:29;;;;;;;12.98;6.53;;;;;;;35.25;27.34;99322.44;5043756;28;20033;-67
2021/07/06 08:27:55;;;;;;;7.93;3.58;;;;;;;35.73;27.20;99321.91;5043612;28;20045;-68
2021/07/06 08:30:21;;;;;;;3.92;2.00;;;;;;;35.04;25.30;99317.75;5043402;28;20029;-67
2021/07/06 08:32:46;;;;;;;4.80;2.58;;;;;;;35.17;25.29;99316.66;5043649;28;20323;-67
2021/07/06 08:35:12;;;;;;;5.93;2.17;;;;;;;35.07;25.43;99319.81;5043472;28;20431;-67
2021/07/06 08:37:37;;;;;;;6.47;2.50;;;;;;;35.60;24.52;99321.06;5043575;28;20136;-69
2021/07/06 08:40:05;;;;;;;4.18;2.05;;;;;;;35.88;23.81;99321.28;5044028;28;20085;-70
2021/07/06 08:42:31;;;;;;;7.80;2.35;;;;;;;36.20;23.89;99324.34;5044088;28;20384;-70
2021/07/06 08:44:56;;;;;;;4.78;2.20;;;;;;;35.84;24.14;99317.59;5033659;28;20033;-67
2021/07/06 08:47:24;;;;;;;5.22;2.28;;;;;;;35.06;25.02;99317.41;5030083;28;20254;-67
2021/07/06 08:49:50;;;;;;;4.10;2.42;;;;;;;34.47;25.69;99328.41;5037282;28;20018;-66
2021/07/06 08:52:17;;;;;;;5.22;2.22;;;;;;;35.12;25.06;99325.13;5045448;28;20057;-69
2021/07/06 08:54:43;;;;;;;3.85;2.47;;;;;;;34.96;24.61;99323.28;5030160;28;20033;-67
2021/07/06 08:57:09;;;;;;;5.90;2.40;;;;;;;34.23;26.51;99335.22;5038049;28;20036;-67
2021/07/06 08:59:39;;;;;;;2.83;2.30;;;;;;;33.47;27.93;99320.47;5025562;28;20323;-68
2021/07/06 09:02:06;;;;;;;3.40;2.50;;;;;;;33.60;27.18;99328.53;5027673;28;20034;-65
2021/07/06 09:04:46;;;;;;;6.13;2.50;;;;;;;34.44;25.25;99337.31;5041198;28;20256;-68
2021/07/06 09:07:12;;;;;;;5.70;2.30;;;;;;;34.15;25.23;99325.06;5042134;28;20036;-65
2021/07/06 09:09:38;;;;;;;2.50;1.90;;;;;;;34.58;26.48;99321.38;5025059;28;20255;-68
2021/07/06 09:12:05;;;;;;;4.97;2.00;;;;;;;35.16;25.70;99323.31;5028643;28;20037;-69
2021/07/06 09:14:31;;;;;;;6.63;2.13;;;;;;;35.00;25.41;99318.75;5034759;28;20037;-67
2021/07/06 09:17:16;;;;;;;3.45;2.58;;;;;;;34.82;26.75;99320.78;5041797;28;20040;-69
2021/07/06 09:19:47;;;;;;;3.78;2.50;;;;;;;35.09;25.72;99312.03;5032607;28;20247;-69
2021/07/06 09:22:19;;;;;;;3.92;2.20;;;;;;;34.37;26.41;99326.81;5036112;28;20034;-67
2021/07/06 09:24:47;;;;;;;6.50;2.63;;;;;;;33.88;27.39;99315.28;5025157;28;20338;-67
2021/07/06 09:27:21;;;;;;;3.50;2.50;;;;;;;33.85;27.77;99326.94;5024700;28;20097;-66
2021/07/06 09:30:15;;;;;;;3.40;2.58;;;;;;;33.26;27.95;99323.00;5023846;28;20041;-69
2021/07/06 09:33:02;;;;;;;6.67;2.53;;;;;;;33.10;28.76;99330.91;5026027;28;20034;-67
2021/07/06 09:35:29;;;;;;;9.95;2.75;;;;;;;32.97;30.23;99338.16;5026368;28;20133;-69
2021/07/06 09:38:01;;;;;;;5.15;2.83;;;;;;;32.99;31.04;99340.56;5024831;28;20312;-69
2021/07/06 09:40:38;;;;;;;10.82;3.20;;;;;;;33.22;30.24;99338.50;5023664;28;20361;-65
2021/07/06 09:43:27;;;;;;;7.28;3.20;;;;;;;33.27;29.66;99330.91;5024832;28;20323;-68
2021/07/06 09:46:11;;;;;;;6.70;3.50;;;;;;;33.52;29.78;99332.09;5036191;28;20037;-66
2021/07/06 09:48:39;;;;;;;7.65;2.97;;;;;;;33.70;29.16;99332.91;5027934;28;20096;-68
2021/07/06 09:51:19;;;;;;;10.07;3.10;;;;;;;33.82;29.06;99327.56;5034472;28;20049;-69
2021/07/06 09:53:51;;;;;;;5.50;2.50;;;;;;;33.84;27.79;99332.75;5024297;28;20053;-67
2021/07/06 09:56:20;;;;;;;7.03;2.83;;;;;;;34.22;27.13;99327.31;5024483;28;20033;-67
2021/07/06 09:58:49;;;;;;;3.97;2.72;;;;;;;34.71;26.55;99328.59;5024430;28;20064;-67
2021/07/06 10:01:15;;;;;;;8.35;3.53;;;;;;;34.86;27.62;99327.25;5024569;28;20072;-67
2021/07/06 10:03:41;;;;;;;15.25;9.48;;;;;;;34.67;26.88;99329.59;5029094;28;20058;-69
2021/07/06 10:06:07;;;;;;;7.30;4.15;;;;;;;34.42;27.33;99323.09;5029876;28;20029;-69
2021/07/06 10:08:33;;;;;;;5.22;3.05;;;;;;;34.42;27.56;99326.63;5027250;28;20040;-69
2021/07/06 10:10:59;;;;;;;4.47;2.80;;;;;;;34.61;27.42;99323.47;5030446;28;20090;-67
2021/07/06 10:13:24;;;;;;;2.90;2.58;;;;;;;34.23;28.10;99323.41;5029395;28;20041;-69
2021/07/06 10:15:50;;;;;;;5.75;2.67;;;;;;;34.44;27.55;99323.56;5027691;28;20026;-69
2021/07/06 10:18:15;;;;;;;2.40;2.20;;;;;;;34.47;25.93;99329.19;5026856;28;20041;-68
2021/07/06 10:20:41;;;;;;;3.58;2.40;;;;;;;34.05;28.17;99322.66;5028326;28;20033;-65
2021/07/06 10:23:07;;;;;;;4.57;2.17;;;;;;;33.96;28.43;99321.88;5026334;28;20328;-66
2021/07/06 10:25:36;;;;;;;4.03;2.70;;;;;;;34.10;28.61;99321.69;5026574;28;20060;-68
2021/07/06 10:28:05;;;;;;;5.00;2.90;;;;;;;33.93;28.52;99317.06;5027041;28;20144;-69
2021/07/06 10:30:37;;;;;;;3.60;3.03;;;;;;;34.16;28.74;99318.44;5026099;28;20272;-67
2021/07/06 10:33:03;;;;;;;4.20;2.53;;;;;;;34.13;28.34;99312.78;5027760;28;20062;-69
2021/07/06 10:35:41;;;;;;;5.15;3.28;;;;;;;34.25;28.42;99316.47;5026186;28;20211;-69
2021/07/06 10:38:31;;;;;;;3.40;2.88;;;;;;;34.37;28.30;99313.09;5027463;28;20038;-67
2021/07/06 10:41:00;;;;;;;4.32;2.80;;;;;;;34.49;27.13;99302.19;5028894;28;20033;-69
2021/07/06 10:43:31;;;;;;;5.55;2.70;;;;;;;34.52;27.22;99306.22;5028247;28;20568;-69
2021/07/06 10:46:13;;;;;;;5.22;3.22;;;;;;;34.54;28.39;99299.25;5027571;28;20030;-67
2021/07/06 10:48:41;;;;;;;8.00;3.22;;;;;;;34.58;27.17;99302.94;5033979;28;20266;-69
2021/07/06 10:51:07;;;;;;;6.13;2.95;;;;;;;34.40;27.96;99300.63;5026338;28;20226;-69
2021/07/06 10:53:32;;;;;;;9.45;3.80;;;;;;;34.42;28.45;99301.09;5027090;28;20050;-67
2021/07/06 10:56:08;;;;;;;5.85;3.10;;;;;;;34.70;28.09;99301.44;5026782;28;20036;-65
2021/07/06 10:58:51;;;;;;;5.78;3.28;;;;;;;34.81;27.74;99297.97;5026670;28;20215;-66
2021/07/06 11:01:45;;;;;;;3.72;2.92;;;;;;;34.65;27.76;99296.94;5028322;28;20030;-68
2021/07/06 11:04:12;;;;;;;4.45;3.38;;;;;;;34.66;27.70;99293.03;5029963;28;20079;-65
2021/07/06 11:06:46;;;;;;;6.57;3.28;;;;;;;34.54;27.41;99291.00;5027356;28;20045;-69
2021/07/06 11:09:18;;;;;;;3.35;3.05;;;;;;;34.16;28.02;99290.97;5027206;28;20037;-69
2021/07/06 11:11:44;;;;;;;6.95;3.33;;;;;;;34.03;28.37;99296.66;5026605;28;20029;-67
2021/07/06 11:14:19;;;;;;;6.88;3.00;;;;;;;33.89;28.83;99294.94;5027393;28;20172;-69
2021/07/06 11:16:56;;;;;;;10.15;4.93;;;;;;;33.93;28.64;99292.34;5028252;28;20365;-67
2021/07/06 11:19:38;;;;;;;8.35;4.85;;;;;;;34.15;28.30;99296.78;5028627;28;20305;-67
2021/07/06 11:22:10;;;;;;;5.22;2.50;;;;;;;34.22;27.72;99289.63;5028542;28;20033;-67
2021/07/06 11:24:43;;;;;;;8.10;3.38;;;;;;;34.26;28.61;99281.53;5024729;28;20036;-67
2021/07/06 11:27:11;;;;;;;5.45;2.60;;;;;;;33.78;28.67;99285.41;5026724;28;20033;-69
2021/07/06 11:29:38;;;;;;;9.65;3.17;;;;;;;33.96;28.67;99288.94;5026524;28;20136;-69
2021/07/06 11:32:12;;;;;;;6.00;2.92;;;;;;;33.94;29.65;99285.69;5026960;28;20116;-67